Time;durP1;ratioP1;P1;durP2;ratioP2;P2;SDS_P1;SDS_P2;PMS_P1;PMS_P2;Temp;Humidity;BMP_temperature;BMP_pressure;BME280_temperature;BME280_humidity;BME280_pressure;Samples;Min_cycle;Max_cycle;Signal;HPM_P1;HPM_P2
2023/03/04 00:02:09;;;;;;;;;;;15.40;41.10;;;;;;5096415;28;20338;-70
2023/03/04 00:04:34;;;;;;;;;;;15.30;41.00;;;;;;5130484;27;19943;-70
2023/03/04 00:07:00;;;;;;;;;;;15.40;41.10;;;;;;5114160;28;20387;-70
2023/03/04 00:09:26;;;;;;;;;;;15.30;41.20;;;;;;5095905;28;19970;-70
2023/03/04 00:11:51;;;;;;;;;;;15.30;41.20;;;;;;5096028;28;19919;-70
2023/03/04 00:14:17;;;;;;;;;;;15.50;41.10;;;;;;5129879;27;19924;-70
2023/03/04 00:16:42;;;;;;;;;;;15.70;40.80;;;;;;5113750;28;19920;-70
2023/03/04 00:19:09;;;;;;;;;;;15.90;40.50;;;;;;5095699;28;20014;-71
2023/03/04 00:21:34;;;;;;;;;;;16.10;40.20;;;;;;5113858;28;19920;-70
2023/03/04 00:24:00;;;;;;;;;;;16.40;40.00;;;;;;5113764;28;19920;-70
2023/03/04 00:26:26;;;;;;;;;;;16.80;39.60;;;;;;5113947;28;20427;-70
2023/03/04 00:28:51;;;;;;;;;;;17.20;39.10;;;;;;5095518;28;20096;-70
2023/03/04 00:31:17;;;;;;;;;;;17.70;38.30;;;;;;5129503;27;19969;-70
2023/03/04 00:33:43;;;;;;;;;;;18.20;37.80;;;;;;5095362;28;19920;-70
2023/03/04 00:36:09;;;;;;;;;;;18.80;36.90;;;;;;5095112;28;19924;-70
2023/03/04 00:38:34;;;;;;;;;;;19.30;36.30;;;;;;5129626;27;19981;-70
2023/03/04 00:41:00;;;;;;;;;;;19.80;35.80;;;;;;5112830;28;20358;-70
2023/03/04 00:43:25;;;;;;;;;;;20.30;35.20;;;;;;5094946;28;20365;-70
2023/03/04 00:45:51;;;;;;;;;;;20.70;35.30;;;;;;5094994;28;19920;-70
2023/03/04 00:48:17;;;;;;;;;;;21.00;34.00;;;;;;5095031;28;19968;-70
2023/03/04 00:50:42;;;;;;;;;;;21.30;33.50;;;;;;5095427;28;20007;-70
2023/03/04 00:53:08;;;;;;;;;;;21.50;33.30;;;;;;5095592;28;19927;-70
2023/03/04 00:55:34;;;;;;;;;;;21.60;33.00;;;;;;5095045;28;20452;-70
2023/03/04 00:57:59;;;;;;;;;;;21.70;32.90;;;;;;5128973;27;20041;-70
2023/03/04 01:00:25;;;;;;;;;;;21.70;32.80;;;;;;5094906;28;20033;-70
2023/03/04 01:02:50;;;;;;;;;;;21.70;32.70;;;;;;5113081;28;19927;-70
2023/03/04 01:05:16;;;;;;;;;;;21.60;32.60;;;;;;5129193;27;19923;-71
2023/03/04 01:07:42;;;;;;;;;;;21.50;32.70;;;;;;5094831;28;20392;-70
2023/03/04 01:10:09;;;;;;;;;;;21.50;32.80;;;;;;5128544;27;19926;-70
2023/03/04 01:12:35;;;;;;;;;;;21.40;32.80;;;;;;5095046;28;20017;-70
2023/03/04 01:15:01;;;;;;;;;;;21.30;32.90;;;;;;5094719;28;20272;-70
2023/03/04 01:17:26;;;;;;;;;;;21.20;33.00;;;;;;5094571;28;19942;-70
2023/03/04 01:19:52;;;;;;;;;;;21.00;33.00;;;;;;5113155;28;19920;-71
2023/03/04 01:22:18;;;;;;;;;;;20.90;33.20;;;;;;5129144;27;19969;-70
2023/03/04 01:24:43;;;;;;;;;;;20.70;33.20;;;;;;5094867;28;20291;-70
2023/03/04 01:27:09;;;;;;;;;;;20.60;33.40;;;;;;5094823;28;20030;-70
2023/03/04 01:29:35;;;;;;;;;;;20.50;33.50;;;;;;5112789;28;20006;-70
2023/03/04 01:32:00;;;;;;;;;;;20.30;33.70;;;;;;5112878;28;19920;-71
2023/03/04 01:34:26;;;;;;;;;;;20.10;33.70;;;;;;5090677;28;19953;-70
2023/03/04 01:36:51;;;;;;;;;;;20.00;33.90;;;;;;5091137;28;20197;-70
2023/03/04 01:39:17;;;;;;;;;;;19.90;34.10;;;;;;5125095;28;19989;-70
2023/03/04 01:41:42;;;;;;;;;;;19.70;34.20;;;;;;5125545;28;19978;-70
2023/03/04 01:44:08;;;;;;;;;;;19.60;34.50;;;;;;5091499;28;20345;-70
2023/03/04 01:46:34;;;;;;;;;;;19.50;34.50;;;;;;5091013;28;19920;-70
2023/03/04 01:48:59;;;;;;;;;;;19.30;34.60;;;;;;5091304;28;19930;-70
2023/03/04 01:51:25;;;;;;;;;;;19.20;34.80;;;;;;5092199;28;20007;-70
2023/03/04 01:53:53;;;;;;;;;;;19.10;34.90;;;;;;5090975;28;20019;-70
2023/03/04 02:01:54;;;;;;;;;;;18.90;35.40;;;;;;5110025;27;20385;-70
2023/03/04 02:04:21;;;;;;;;;;;18.80;35.50;;;;;;5110226;28;20279;-70
2023/03/04 02:06:46;;;;;;;;;;;18.60;35.50;;;;;;5109116;28;19924;-70
2023/03/04 02:09:13;;;;;;;;;;;18.60;35.70;;;;;;5108900;28;19982;-70
2023/03/04 02:11:39;;;;;;;;;;;18.50;35.70;;;;;;5108746;28;20386;-73
2023/03/04 02:14:05;;;;;;;;;;;18.40;35.80;;;;;;5109257;28;19920;-70
2023/03/04 02:16:30;;;;;;;;;;;18.40;36.00;;;;;;5143088;27;19931;-70
2023/03/04 02:18:56;;;;;;;;;;;18.30;36.00;;;;;;5108698;28;19928;-70
2023/03/04 02:24:23;;;;;;;;;;;18.20;36.30;;;;;;5089982;28;19919;-70
2023/03/04 02:26:48;;;;;;;;;;;18.10;36.40;;;;;;5088590;28;20065;-70
2023/03/04 02:29:15;;;;;;;;;;;18.10;36.50;;;;;;5088708;28;20371;-70
2023/03/04 02:31:42;;;;;;;;;;;17.90;36.50;;;;;;5089933;28;20368;-70
2023/03/04 02:34:12;;;;;;;;;;;17.80;36.60;;;;;;5088444;28;19921;-70
2023/03/04 02:36:38;;;;;;;;;;;17.70;36.70;;;;;;5089664;28;20068;-70
2023/03/04 02:39:06;;;;;;;;;;;17.70;36.90;;;;;;5088726;28;19920;-70
2023/03/04 02:41:32;;;;;;;;;;;17.60;36.90;;;;;;5105416;28;20078;-70
2023/03/04 02:43:57;;;;;;;;;;;17.50;37.00;;;;;;5087889;28;20019;-70
2023/03/04 02:46:23;;;;;;;;;;;17.50;37.10;;;;;;5088018;28;19967;-70
2023/03/04 02:48:49;;;;;;;;;;;17.40;37.30;;;;;;5088473;28;19924;-70
2023/03/04 02:51:15;;;;;;;;;;;17.30;37.40;;;;;;5088472;28;20333;-70
2023/03/04 02:53:40;;;;;;;;;;;17.20;37.50;;;;;;5088042;28;19920;-70
2023/03/04 02:56:06;;;;;;;;;;;17.20;37.60;;;;;;5089167;28;19966;-70
2023/03/04 02:58:31;;;;;;;;;;;17.10;37.80;;;;;;5087942;28;19924;-70
2023/03/04 03:00:57;;;;;;;;;;;17.10;37.90;;;;;;5088145;28;19951;-70
2023/03/04 03:03:23;;;;;;;;;;;17.00;38.00;;;;;;5087879;28;19931;-71
2023/03/04 03:05:48;;;;;;;;;;;16.90;38.10;;;;;;5088180;28;20070;-70
2023/03/04 03:08:14;;;;;;;;;;;16.90;38.20;;;;;;5088069;28;19978;-70
2023/03/04 03:10:40;;;;;;;;;;;16.80;38.40;;;;;;5088083;28;19924;-70
2023/03/04 03:13:05;;;;;;;;;;;16.70;38.50;;;;;;5087872;28;19943;-70
2023/03/04 03:15:31;;;;;;;;;;;16.60;38.60;;;;;;5087993;28;20425;-70
2023/03/04 03:17:57;;;;;;;;;;;16.60;38.70;;;;;;5087516;28;20391;-71
2023/03/04 03:20:22;;;;;;;;;;;16.50;38.80;;;;;;5087535;28;19921;-71
2023/03/04 03:22:48;;;;;;;;;;;16.50;38.90;;;;;;5087241;28;19925;-70
2023/03/04 03:25:15;;;;;;;;;;;16.50;39.00;;;;;;5087863;28;19942;-70
2023/03/04 03:27:40;;;;;;;;;;;16.50;39.00;;;;;;5087655;28;19920;-70
2023/03/04 03:30:07;;;;;;;;;;;16.40;39.10;;;;;;5087298;28;19990;-70
2023/03/04 03:32:32;;;;;;;;;;;16.40;39.20;;;;;;5087258;28;19921;-70
2023/03/04 03:34:58;;;;;;;;;;;16.30;39.20;;;;;;5076274;28;19921;-70
2023/03/04 03:37:23;;;;;;;;;;;16.30;39.20;;;;;;5075033;28;19920;-71
2023/03/04 03:39:49;;;;;;;;;;;16.30;39.40;;;;;;5073907;28;20288;-70
2023/03/04 03:42:14;;;;;;;;;;;16.20;39.40;;;;;;5073918;28;20280;-70
2023/03/04 03:44:40;;;;;;;;;;;16.20;39.50;;;;;;5073644;28;19920;-70
2023/03/04 03:47:06;;;;;;;;;;;16.20;39.50;;;;;;5075154;28;19920;-70
2023/03/04 03:49:31;;;;;;;;;;;16.20;39.60;;;;;;5073558;28;19920;-70
2023/03/04 03:51:57;;;;;;;;;;;16.10;39.50;;;;;;5074820;28;19920;-70
2023/03/04 03:54:25;;;;;;;;;;;16.10;39.60;;;;;;5090239;28;20290;-71
2023/03/04 03:56:51;;;;;;;;;;;16.30;39.80;;;;;;5073601;28;20021;-71
2023/03/04 03:59:16;;;;;;;;;;;16.00;39.80;;;;;;5073619;28;19920;-70
2023/03/04 04:01:42;;;;;;;;;;;16.00;39.80;;;;;;5073519;28;20403;-70
2023/03/04 04:04:07;;;;;;;;;;;16.00;39.80;;;;;;5073614;28;20016;-71
2023/03/04 04:06:33;;;;;;;;;;;16.00;39.80;;;;;;5073585;28;20376;-70
2023/03/04 04:08:58;;;;;;;;;;;16.00;39.70;;;;;;5073471;28;19978;-70
2023/03/04 04:11:24;;;;;;;;;;;16.00;39.70;;;;;;5073151;28;20399;-70
2023/03/04 04:13:49;;;;;;;;;;;16.00;39.60;;;;;;5073376;28;19920;-70
2023/03/04 04:16:15;;;;;;;;;;;16.00;39.70;;;;;;5072967;28;20299;-71
2023/03/04 04:18:40;;;;;;;;;;;16.00;39.70;;;;;;5073381;28;19966;-71
2023/03/04 04:21:06;;;;;;;;;;;16.00;39.70;;;;;;5073195;28;19921;-71
2023/03/04 04:23:31;;;;;;;;;;;16.00;39.80;;;;;;5072686;28;20445;-70
2023/03/04 04:25:57;;;;;;;;;;;16.00;39.80;;;;;;5072789;28;19966;-70
2023/03/04 04:28:23;;;;;;;;;;;16.00;39.80;;;;;;5074138;28;19927;-70
2023/03/04 04:30:49;;;;;;;;;;;16.00;39.80;;;;;;5072728;28;19925;-70
2023/03/04 04:33:14;;;;;;;;;;;15.90;39.80;;;;;;5074181;28;20003;-70
2023/03/04 04:35:40;;;;;;;;;;;15.90;39.80;;;;;;5072865;28;20015;-70
2023/03/04 04:38:06;;;;;;;;;;;15.90;40.00;;;;;;5072671;28;19921;-70
2023/03/04 04:40:32;;;;;;;;;;;15.90;40.00;;;;;;5073831;28;20054;-70
2023/03/04 04:42:57;;;;;;;;;;;15.80;40.00;;;;;;5072714;28;20015;-70
2023/03/04 04:45:23;;;;;;;;;;;15.80;40.00;;;;;;5071517;28;20019;-71
2023/03/04 04:47:49;;;;;;;;;;;15.80;40.00;;;;;;5072691;28;20028;-70
2023/03/04 04:50:15;;;;;;;;;;;15.80;40.10;;;;;;5074033;28;19924;-70
2023/03/04 04:52:41;;;;;;;;;;;15.80;40.20;;;;;;5072648;28;20046;-70
2023/03/04 04:55:07;;;;;;;;;;;15.80;40.20;;;;;;5072425;28;19921;-70
2023/03/04 04:57:32;;;;;;;;;;;15.80;40.20;;;;;;5071475;28;19920;-70
2023/03/04 05:00:01;;;;;;;;;;;15.70;40.20;;;;;;5072011;28;19927;-70
2023/03/04 05:02:26;;;;;;;;;;;15.70;40.20;;;;;;5072156;28;19924;-70
2023/03/04 05:04:52;;;;;;;;;;;15.70;40.40;;;;;;5072499;28;20019;-70
2023/03/04 05:07:18;;;;;;;;;;;15.70;40.40;;;;;;5072212;28;20092;-70
2023/03/04 05:09:44;;;;;;;;;;;15.70;40.50;;;;;;5073319;28;20011;-70
2023/03/04 05:12:10;;;;;;;;;;;15.70;40.40;;;;;;5073322;28;20264;-70
2023/03/04 05:14:35;;;;;;;;;;;15.70;40.50;;;;;;5072229;28;19927;-70
2023/03/04 05:17:01;;;;;;;;;;;15.60;40.60;;;;;;5072070;28;20319;-71
2023/03/04 05:19:27;;;;;;;;;;;15.70;40.60;;;;;;5072096;28;19920;-71
2023/03/04 05:21:52;;;;;;;;;;;15.60;40.60;;;;;;5075092;28;19966;-70
2023/03/04 05:24:18;;;;;;;;;;;15.60;40.60;;;;;;5075454;28;19932;-70
2023/03/04 05:26:43;;;;;;;;;;;15.60;40.70;;;;;;5075006;28;20287;-70
2023/03/04 05:29:09;;;;;;;;;;;15.60;40.60;;;;;;5074984;28;19926;-70
2023/03/04 05:31:35;;;;;;;;;;;15.60;40.60;;;;;;5075167;28;19974;-70
2023/03/04 05:34:00;;;;;;;;;;;15.60;40.70;;;;;;5074872;28;20322;-70
2023/03/04 05:36:26;;;;;;;;;;;15.60;40.70;;;;;;5074888;28;19920;-70
2023/03/04 05:38:51;;;;;;;;;;;15.60;40.80;;;;;;5075320;28;19924;-70
2023/03/04 05:41:21;;;;;;;;;;;15.60;40.80;;;;;;5075163;28;20371;-70
2023/03/04 05:43:47;;;;;;;;;;;15.60;40.80;;;;;;5074602;28;20398;-70
2023/03/04 05:46:14;;;;;;;;;;;15.60;40.80;;;;;;5074754;28;19924;-70
2023/03/04 05:48:39;;;;;;;;;;;15.60;40.80;;;;;;5074678;28;20375;-70
2023/03/04 05:51:05;;;;;;;;;;;15.50;40.80;;;;;;5074800;28;19931;-70
2023/03/04 05:53:30;;;;;;;;;;;15.60;40.90;;;;;;5074637;28;20015;-70
2023/03/04 05:55:58;;;;;;;;;;;15.50;40.80;;;;;;5074539;28;19975;-70
2023/03/04 05:58:23;;;;;;;;;;;15.50;40.90;;;;;;5074241;28;19927;-70
2023/03/04 06:00:49;;;;;;;;;;;15.50;40.90;;;;;;5074557;28;20018;-70
2023/03/04 06:03:16;;;;;;;;;;;15.50;40.90;;;;;;5074361;28;19968;-70
2023/03/04 06:05:42;;;;;;;;;;;15.50;41.00;;;;;;5091286;28;19924;-70
2023/03/04 06:08:08;;;;;;;;;;;15.50;41.00;;;;;;5074365;28;20011;-71
2023/03/04 06:10:33;;;;;;;;;;;15.50;41.00;;;;;;5091250;28;19920;-70
2023/03/04 06:12:59;;;;;;;;;;;15.50;41.10;;;;;;5092454;28;19920;-70
2023/03/04 06:15:24;;;;;;;;;;;15.50;41.10;;;;;;5074603;28;19930;-71
2023/03/04 06:17:50;;;;;;;;;;;15.50;41.10;;;;;;5074641;28;20272;-71
2023/03/04 06:20:16;;;;;;;;;;;15.40;41.10;;;;;;5092378;28;20431;-71
2023/03/04 06:22:41;;;;;;;;;;;15.50;41.10;;;;;;5092046;28;19924;-71
2023/03/04 06:25:07;;;;;;;;;;;15.50;41.20;;;;;;5090976;28;19920;-70
2023/03/04 06:27:32;;;;;;;;;;;15.40;41.20;;;;;;5091184;28;19920;-70
2023/03/04 06:29:58;;;;;;;;;;;15.40;41.20;;;;;;5091390;28;19920;-70
2023/03/04 06:32:23;;;;;;;;;;;15.40;41.30;;;;;;5074387;28;19921;-71
2023/03/04 06:34:49;;;;;;;;;;;15.40;41.30;;;;;;5091224;28;19921;-70
2023/03/04 06:37:14;;;;;;;;;;;15.40;41.30;;;;;;5092459;28;19924;-70
2023/03/04 06:39:40;;;;;;;;;;;15.40;41.40;;;;;;5074485;28;20395;-70
2023/03/04 06:42:05;;;;;;;;;;;15.40;41.40;;;;;;5091107;28;20363;-70
2023/03/04 06:44:31;;;;;;;;;;;15.30;41.40;;;;;;5092162;28;20463;-70
2023/03/04 06:46:56;;;;;;;;;;;15.40;41.40;;;;;;5091212;28;20367;-72
2023/03/04 06:49:22;;;;;;;;;;;15.30;41.50;;;;;;5092070;28;20384;-71
2023/03/04 06:51:47;;;;;;;;;;;15.40;41.20;;;;;;5091659;28;19920;-70
2023/03/04 06:54:13;;;;;;;;;;;15.70;41.30;;;;;;5073256;28;19920;-71
2023/03/04 06:56:39;;;;;;;;;;;15.90;40.90;;;;;;5090572;28;19926;-70
2023/03/04 06:59:04;;;;;;;;;;;16.10;40.60;;;;;;5074119;28;19946;-70
2023/03/04 07:01:30;;;;;;;;;;;16.40;40.40;;;;;;5073851;28;19943;-70
2023/03/04 07:03:55;;;;;;;;;;;16.80;39.90;;;;;;5073789;28;19924;-71
2023/03/04 07:06:23;;;;;;;;;;;17.20;39.30;;;;;;5074256;28;19935;-71
2023/03/04 07:08:48;;;;;;;;;;;17.70;38.80;;;;;;5074340;28;19924;-70
2023/03/04 07:11:14;;;;;;;;;;;18.20;38.30;;;;;;5077884;28;19920;-70
2023/03/04 07:13:40;;;;;;;;;;;18.80;37.60;;;;;;5077988;28;19962;-70
2023/03/04 07:16:07;;;;;;;;;;;19.20;36.90;;;;;;5077731;28;19943;-71
2023/03/04 07:18:32;;;;;;;;;;;19.70;36.40;;;;;;5077733;28;20325;-71
2023/03/04 07:20:58;;;;;;;;;;;20.10;35.70;;;;;;5095934;28;19947;-71
2023/03/04 07:23:23;;;;;;;;;;;20.60;35.00;;;;;;5094241;28;19924;-70
2023/03/04 07:25:50;;;;;;;;;;;21.00;34.60;;;;;;5094483;28;19927;-71
2023/03/04 07:28:15;;;;;;;;;;;21.20;34.10;;;;;;5077369;28;19965;-70
2023/03/04 07:30:41;;;;;;;;;;;21.50;33.80;;;;;;5077441;28;19966;-71
2023/03/04 07:33:06;;;;;;;;;;;21.60;33.80;;;;;;5094442;28;19920;-70
2023/03/04 07:35:32;;;;;;;;;;;21.70;33.50;;;;;;5095400;28;20291;-71
2023/03/04 07:37:57;;;;;;;;;;;21.70;33.30;;;;;;5077521;28;20291;-70
2023/03/04 07:40:23;;;;;;;;;;;21.60;33.10;;;;;;5094463;28;20367;-71
2023/03/04 07:42:49;;;;;;;;;;;21.60;33.20;;;;;;5076968;28;19964;-71
2023/03/04 07:45:15;;;;;;;;;;;21.50;33.10;;;;;;5074788;28;19973;-70
2023/03/04 07:47:40;;;;;;;;;;;21.50;33.30;;;;;;5057076;28;19920;-70
2023/03/04 07:50:06;;;;;;;;;;;21.40;33.40;;;;;;5057194;28;19935;-71
2023/03/04 07:52:32;;;;;;;;;;;21.30;33.60;;;;;;5056854;28;20290;-71
2023/03/04 07:54:57;;;;;;;;;;;21.20;34.30;;;;;;5081371;28;19920;-70
2023/03/04 07:57:23;;;;;;;;;;;21.00;33.70;;;;;;5095153;28;20352;-70
2023/03/04 07:59:48;;;;;;;;;;;20.90;33.80;;;;;;5093629;28;19924;-70
2023/03/04 08:02:14;;;;;;;;;;;20.80;34.00;;;;;;5076883;28;19950;-70
2023/03/04 08:04:43;;;;;;;;;;;20.60;34.20;;;;;;5077022;28;19927;-71
2023/03/04 08:07:08;;;;;;;;;;;20.50;34.30;;;;;;5076532;28;19920;-71
2023/03/04 08:09:34;;;;;;;;;;;20.30;34.50;;;;;;5094861;28;19974;-71
2023/03/04 08:12:02;;;;;;;;;;;20.10;34.70;;;;;;5094732;28;20287;-71
2023/03/04 08:14:31;;;;;;;;;;;20.00;34.90;;;;;;5076745;28;19920;-71
2023/03/04 08:16:56;;;;;;;;;;;20.00;35.20;;;;;;5094615;28;19924;-71
2023/03/04 08:19:22;;;;;;;;;;;19.70;35.20;;;;;;5076440;28;19927;-71
2023/03/04 08:21:47;;;;;;;;;;;19.60;35.50;;;;;;5075852;28;20015;-71
2023/03/04 08:24:13;;;;;;;;;;;19.40;35.60;;;;;;5094494;28;19931;-70
2023/03/04 08:26:40;;;;;;;;;;;19.40;35.80;;;;;;5093466;28;19920;-70
2023/03/04 08:29:07;;;;;;;;;;;19.30;36.10;;;;;;5094408;28;19920;-70
2023/03/04 08:31:32;;;;;;;;;;;19.10;36.20;;;;;;5076278;28;19920;-71
2023/03/04 08:33:58;;;;;;;;;;;19.00;36.30;;;;;;5076181;28;19927;-70
2023/03/04 08:36:24;;;;;;;;;;;18.90;36.40;;;;;;5076379;28;19993;-70
2023/03/04 08:38:49;;;;;;;;;;;18.80;36.60;;;;;;5093364;28;19927;-70
2023/03/04 08:41:15;;;;;;;;;;;18.80;36.80;;;;;;5076272;28;20390;-71
2023/03/04 08:43:41;;;;;;;;;;;18.70;36.90;;;;;;5093930;28;19990;-70
2023/03/04 08:46:06;;;;;;;;;;;18.60;36.90;;;;;;5075918;28;20167;-70
2023/03/04 08:48:32;;;;;;;;;;;18.50;37.10;;;;;;5075836;28;19926;-71
2023/03/04 08:50:58;;;;;;;;;;;18.50;37.30;;;;;;5093804;28;19921;-70
2023/03/04 08:53:24;;;;;;;;;;;18.40;37.30;;;;;;5092933;28;20265;-70
2023/03/04 08:55:51;;;;;;;;;;;18.30;37.40;;;;;;5075945;28;20283;-71
2023/03/04 08:58:16;;;;;;;;;;;18.30;37.60;;;;;;5075598;28;19920;-70
2023/03/04 09:00:43;;;;;;;;;;;18.20;37.70;;;;;;5093759;28;19920;-70
2023/03/04 09:03:10;;;;;;;;;;;18.10;37.80;;;;;;5075495;28;20114;-70
2023/03/04 09:05:35;;;;;;;;;;;18.10;38.00;;;;;;5075729;28;19935;-70
2023/03/04 09:08:01;;;;;;;;;;;18.00;38.10;;;;;;5093523;28;20291;-70
2023/03/04 09:10:26;;;;;;;;;;;17.90;38.20;;;;;;5075304;28;20054;-70
2023/03/04 09:12:52;;;;;;;;;;;17.90;38.30;;;;;;5075705;28;20055;-70
2023/03/04 09:15:18;;;;;;;;;;;17.80;38.50;;;;;;5075316;28;19920;-71
2023/03/04 09:17:43;;;;;;;;;;;17.70;38.50;;;;;;5093368;28;19920;-71
2023/03/04 09:20:10;;;;;;;;;;;17.60;38.70;;;;;;5075348;28;20291;-70
2023/03/04 09:22:36;;;;;;;;;;;17.60;38.90;;;;;;5074974;28;19928;-71
2023/03/04 09:25:01;;;;;;;;;;;17.50;38.80;;;;;;5075453;28;19920;-70
2023/03/04 09:27:27;;;;;;;;;;;17.40;39.00;;;;;;5075427;28;20436;-70
2023/03/04 09:29:53;;;;;;;;;;;17.40;39.20;;;;;;5074951;28;20345;-73
2023/03/04 09:32:18;;;;;;;;;;;17.30;39.30;;;;;;5074784;28;19962;-70
2023/03/04 09:34:44;;;;;;;;;;;17.30;39.40;;;;;;5074923;28;20415;-70
2023/03/04 09:37:09;;;;;;;;;;;17.20;39.40;;;;;;5074861;28;19927;-70
2023/03/04 09:39:35;;;;;;;;;;;17.10;39.60;;;;;;5074835;28;20011;-71
2023/03/04 09:42:01;;;;;;;;;;;17.10;39.70;;;;;;5092871;28;19972;-70
2023/03/04 09:44:31;;;;;;;;;;;17.00;39.80;;;;;;5075103;28;20325;-71
2023/03/04 09:46:58;;;;;;;;;;;17.00;40.00;;;;;;5074683;28;19920;-70
2023/03/04 09:49:24;;;;;;;;;;;16.90;40.00;;;;;;5075100;28;20394;-71
2023/03/04 09:54:51;;;;;;;;;;;16.80;40.30;;;;;;5089948;28;19912;-70
2023/03/04 09:57:36;;;;;;;;;;;16.80;40.40;;;;;;5088512;28;19927;-71
2023/03/04 10:05:25;;;;;;;;;;;16.70;40.60;;;;;;5089959;28;19925;-70
2023/03/04 10:07:56;;;;;;;;;;;16.60;40.60;;;;;;5088514;28;19920;-71
2023/03/04 10:10:24;;;;;;;;;;;16.60;40.80;;;;;;5088611;28;19958;-70
2023/03/04 10:12:52;;;;;;;;;;;16.50;40.90;;;;;;5088496;28;19942;-69
2023/03/04 10:15:22;;;;;;;;;;;16.50;41.00;;;;;;5089299;28;20424;-70
2023/03/04 10:17:52;;;;;;;;;;;16.50;41.00;;;;;;5088409;28;20007;-70
2023/03/04 10:20:20;;;;;;;;;;;16.40;41.00;;;;;;5088577;28;19962;-71
2023/03/04 10:22:49;;;;;;;;;;;16.40;41.00;;;;;;5088245;28;19921;-70
2023/03/04 10:27:56;;;;;;;;;;;16.40;41.30;;;;;;5151504;27;20326;-69
2023/03/04 10:30:29;;;;;;;;;;;16.30;41.30;;;;;;5151453;27;19942;-71
2023/03/04 10:32:54;;;;;;;;;;;16.30;41.30;;;;;;5150075;27;19946;-70
2023/03/04 10:35:22;;;;;;;;;;;16.20;41.40;;;;;;5150141;27;20099;-70
2023/03/04 10:37:49;;;;;;;;;;;16.20;41.40;;;;;;5150082;27;20457;-70
2023/03/04 10:40:19;;;;;;;;;;;16.20;41.50;;;;;;5150220;27;19926;-70
2023/03/04 10:42:47;;;;;;;;;;;16.20;41.60;;;;;;5150202;27;19920;-70
2023/03/04 10:45:19;;;;;;;;;;;16.20;41.60;;;;;;5149910;27;19970;-70
2023/03/04 10:47:51;;;;;;;;;;;16.10;42.40;;;;;;5149676;27;19930;-70
2023/03/04 10:50:20;;;;;;;;;;;16.10;41.70;;;;;;5134107;27;20458;-70
2023/03/04 10:52:48;;;;;;;;;;;16.10;41.80;;;;;;5130171;27;20294;-70
2023/03/04 10:55:16;;;;;;;;;;;16.00;41.90;;;;;;5139489;27;19919;-69
2023/03/04 10:57:43;;;;;;;;;;;16.00;41.90;;;;;;5149513;27;20400;-70
2023/03/04 11:03:15;;;;;;;;;;;16.00;41.90;;;;;;5110288;27;20385;-69
2023/03/04 11:05:41;;;;;;;;;;;15.90;41.90;;;;;;5108682;28;19955;-69
2023/03/04 11:08:15;;;;;;;;;;;15.90;42.00;;;;;;5108914;28;20036;-69
2023/03/04 11:10:41;;;;;;;;;;;15.90;42.00;;;;;;5109135;28;19975;-70
2023/03/04 11:15:52;;;;;;;;;;;15.90;42.00;;;;;;5110293;27;19940;-69
2023/03/04 11:18:23;;;;;;;;;;;15.90;42.00;;;;;;5110377;28;19924;-70
2023/03/04 11:20:49;;;;;;;;;;;15.90;42.00;;;;;;5108867;28;19920;-70
2023/03/04 11:23:22;;;;;;;;;;;15.90;42.00;;;;;;5110283;28;19927;-70
2023/03/04 11:25:53;;;;;;;;;;;15.90;42.10;;;;;;5108799;28;19947;-70
2023/03/04 11:31:02;;;;;;;;;;;15.90;42.00;;;;;;5110256;27;19919;-70
2023/03/04 11:33:41;;;;;;;;;;;15.80;41.90;;;;;;5143676;27;19919;-70
2023/03/04 11:38:48;;;;;;;;;;;15.90;42.00;;;;;;5089878;28;19918;-70
2023/03/04 11:41:18;;;;;;;;;;;15.80;42.00;;;;;;5105637;28;19935;-69
2023/03/04 11:43:45;;;;;;;;;;;15.80;42.00;;;;;;5089081;28;20113;-70
2023/03/04 11:46:30;;;;;;;;;;;15.80;42.00;;;;;;5088331;28;19920;-69
2023/03/04 11:51:43;;;;;;;;;;;15.80;42.10;;;;;;5110174;27;19918;-69
2023/03/04 11:54:22;;;;;;;;;;;15.80;42.10;;;;;;5110370;28;19931;-70
2023/03/04 11:56:50;;;;;;;;;;;15.80;42.20;;;;;;5108973;28;20375;-69
2023/03/04 12:02:18;;;;;;;;;;;15.80;42.20;;;;;;5089884;28;20367;-69
2023/03/04 12:05:04;;;;;;;;;;;15.80;42.20;;;;;;5088838;28;19986;-69
2023/03/04 12:07:49;;;;;;;;;;;15.80;42.30;;;;;;5105320;28;20007;-70
2023/03/04 12:10:22;;;;;;;;;;;15.70;42.30;;;;;;5088585;28;19920;-70
2023/03/04 12:13:07;;;;;;;;;;;15.80;42.30;;;;;;5088721;28;19927;-70
2023/03/04 12:24:12;;;;;;;;;;;15.70;42.30;;;;;;5110292;27;19912;-69
2023/03/04 12:26:46;;;;;;;;;;;15.70;42.40;;;;;;5108731;28;19966;-70
2023/03/04 12:29:22;;;;;;;;;;;15.70;42.40;;;;;;5108923;28;19927;-69
2023/03/04 12:31:53;;;;;;;;;;;15.70;42.40;;;;;;5108715;28;19924;-70
2023/03/04 12:34:28;;;;;;;;;;;15.70;42.40;;;;;;5108781;28;19920;-70
2023/03/04 12:39:39;;;;;;;;;;;15.60;42.30;;;;;;5089949;28;19912;-70
2023/03/04 12:42:15;;;;;;;;;;;15.60;42.40;;;;;;5088465;28;19920;-70
2023/03/04 12:44:44;;;;;;;;;;;15.60;42.30;;;;;;5088543;28;19921;-70
2023/03/04 12:47:18;;;;;;;;;;;15.60;42.40;;;;;;5088766;28;19920;-69
2023/03/04 12:52:49;;;;;;;;;;;15.60;42.40;;;;;;5089704;28;19919;-69
2023/03/04 12:55:16;;;;;;;;;;;15.50;42.40;;;;;;5088846;28;19954;-69
2023/03/04 12:57:42;;;;;;;;;;;15.50;42.50;;;;;;5088913;28;20268;-69
2023/03/04 13:00:16;;;;;;;;;;;15.50;42.40;;;;;;5105656;28;20364;-69
2023/03/04 13:03:02;;;;;;;;;;;15.50;42.40;;;;;;5071864;28;19934;-69
2023/03/04 13:08:16;;;;;;;;;;;15.50;42.50;;;;;;5110216;27;19930;-70
2023/03/04 13:10:41;;;;;;;;;;;15.40;42.40;;;;;;5092126;28;19920;-69
2023/03/04 13:13:27;;;;;;;;;;;15.50;42.50;;;;;;5092153;28;19920;-70
2023/03/04 13:16:00;;;;;;;;;;;15.50;42.50;;;;;;5091649;28;20359;-69
2023/03/04 13:23:51;;;;;;;;;;;15.40;42.40;;;;;;5089697;28;19919;-69
2023/03/04 13:26:20;;;;;;;;;;;15.40;42.50;;;;;;5087604;28;19920;-70
2023/03/04 13:28:50;;;;;;;;;;;15.40;42.50;;;;;;5089288;28;19920;-69
2023/03/04 13:31:17;;;;;;;;;;;15.20;42.40;;;;;;5088618;28;19920;-70
2023/03/04 13:33:44;;;;;;;;;;;15.40;42.60;;;;;;5089813;28;20284;-70
2023/03/04 13:36:29;;;;;;;;;;;15.40;42.60;;;;;;5088473;28;20372;-70
2023/03/04 13:38:59;;;;;;;;;;;15.40;42.60;;;;;;5088354;28;19964;-70
2023/03/04 13:41:30;;;;;;;;;;;15.30;43.30;;;;;;5088272;28;19920;-70
2023/03/04 13:43:56;;;;;;;;;;;15.40;42.60;;;;;;5088248;28;20015;-70
2023/03/04 13:49:03;;;;;;;;;;;15.30;42.60;;;;;;5131432;27;1864312;-71
2023/03/04 13:54:20;;;;;;;;;;;15.30;42.60;;;;;;5110258;27;19912;-69
2023/03/04 13:56:46;;;;;;;;;;;15.30;42.60;;;;;;5109139;28;20018;-69
2023/03/04 13:59:18;;;;;;;;;;;15.30;42.60;;;;;;5143196;27;19962;-70
2023/03/04 14:12:46;;;;;;;;;;;15.30;42.50;;;;;;5090010;28;19919;-70
2023/03/04 14:17:57;;;;;;;;;;;15.30;42.60;;;;;;5110302;27;19912;-70
2023/03/04 14:23:21;;;;;;;;;;;15.30;42.50;;;;;;5110162;27;19913;-70
2023/03/04 14:25:46;;;;;;;;;;;15.40;42.50;;;;;;5109103;28;20014;-69
2023/03/04 14:28:15;;;;;;;;;;;15.30;42.50;;;;;;5143303;27;20020;-70
2023/03/04 14:30:41;;;;;;;;;;;15.30;42.50;;;;;;5109125;28;20302;-70
2023/03/04 14:33:09;;;;;;;;;;;15.30;42.50;;;;;;5108898;28;19920;-70
2023/03/04 14:35:35;;;;;;;;;;;15.30;42.50;;;;;;5108655;28;19970;-70
2023/03/04 14:38:02;;;;;;;;;;;15.30;42.50;;;;;;5143406;27;19924;-70
2023/03/04 14:40:30;;;;;;;;;;;15.30;42.50;;;;;;5108634;28;19927;-70
2023/03/04 14:43:00;;;;;;;;;;;15.30;42.50;;;;;;5109931;28;20020;-70
2023/03/04 14:45:26;;;;;;;;;;;15.30;42.50;;;;;;5108795;28;19963;-70
2023/03/04 14:47:53;;;;;;;;;;;15.30;42.50;;;;;;5109362;28;19978;-70
2023/03/04 14:50:19;;;;;;;;;;;15.30;42.50;;;;;;5108212;28;19920;-70
2023/03/04 14:52:45;;;;;;;;;;;15.30;42.50;;;;;;5108761;28;20018;-70
2023/03/04 14:55:27;;;;;;;;;;;15.20;42.40;;;;;;5108396;28;19920;-70
2023/03/04 14:57:57;;;;;;;;;;;15.20;42.40;;;;;;5108515;28;19920;-69
2023/03/04 15:00:27;;;;;;;;;;;15.20;42.40;;;;;;5109720;28;19927;-70
2023/03/04 15:02:54;;;;;;;;;;;15.10;42.40;;;;;;5108145;28;19924;-70
2023/03/04 15:05:23;;;;;;;;;;;15.20;42.50;;;;;;5109507;28;19927;-70
2023/03/04 15:07:50;;;;;;;;;;;15.20;42.40;;;;;;5109551;28;19919;-69
2023/03/04 15:10:19;;;;;;;;;;;15.20;42.40;;;;;;5108069;28;20002;-70
2023/03/04 15:12:49;;;;;;;;;;;15.20;42.40;;;;;;5109357;28;19920;-70
2023/03/04 15:15:34;;;;;;;;;;;15.20;42.50;;;;;;5108110;28;19920;-70
2023/03/04 15:18:01;;;;;;;;;;;15.20;42.40;;;;;;5142467;27;19920;-70
2023/03/04 15:20:28;;;;;;;;;;;15.20;42.50;;;;;;5109214;28;19920;-71
2023/03/04 15:25:34;;;;;;;;;;;15.10;42.30;;;;;;5110267;27;20294;-70
2023/03/04 15:28:01;;;;;;;;;;;15.10;42.30;;;;;;5108823;28;19926;-69
2023/03/04 15:30:28;;;;;;;;;;;15.10;42.40;;;;;;5109254;28;19920;-69
2023/03/04 15:32:54;;;;;;;;;;;15.10;42.40;;;;;;5108837;28;19927;-70
2023/03/04 15:35:20;;;;;;;;;;;15.10;42.40;;;;;;5109139;28;19924;-70
2023/03/04 15:37:46;;;;;;;;;;;15.10;42.50;;;;;;5108672;28;20397;-71
2023/03/04 15:40:19;;;;;;;;;;;15.10;42.50;;;;;;5108769;28;20367;-70